createdAt,value
2022-08-23T00:01:32.091Z,48.15
2022-08-23T00:03:58.262Z,47.79
2022-08-23T00:06:24.512Z,47.39
2022-08-23T00:08:50.664Z,47.12
2022-08-23T00:11:16.818Z,46.92
2022-08-23T00:13:47.337Z,46.52
2022-08-23T00:16:14.508Z,46.42
2022-08-23T00:18:40.709Z,46.24
2022-08-23T00:21:13.911Z,46.06
2022-08-23T00:23:40.048Z,46.02
2022-08-23T00:26:06.185Z,45.88
2022-08-23T00:28:32.367Z,45.57
2022-08-23T00:30:58.533Z,45.44
2022-08-23T00:33:24.708Z,45.50
2022-08-23T00:35:50.867Z,45.47
2022-08-23T00:38:34.525Z,45.24
2022-08-23T00:41:01.216Z,45.29
2022-08-23T00:43:27.375Z,45.26
2022-08-23T00:45:53.506Z,45.06
2022-08-23T00:48:19.650Z,44.92
2022-08-23T00:50:45.791Z,44.87
2022-08-23T00:53:11.926Z,44.81
2022-08-23T00:55:38.083Z,44.93
2022-08-23T00:58:04.288Z,44.88
2022-08-23T01:00:30.481Z,44.85
2022-08-23T01:02:57.124Z,44.74
2022-08-23T01:05:23.250Z,44.73
2022-08-23T01:07:49.372Z,44.75
2022-08-23T01:10:20.008Z,44.77
2022-08-23T01:12:47.266Z,44.72
2022-08-23T01:15:13.407Z,44.61
2022-08-23T01:17:39.608Z,44.70
2022-08-23T01:20:05.741Z,44.72
2022-08-23T01:22:31.893Z,44.57
2022-08-23T01:25:07.784Z,44.32
2022-08-23T01:27:34.797Z,44.51
2022-08-23T01:30:00.946Z,44.44
2022-08-23T01:32:27.066Z,44.52
2022-08-23T01:34:53.196Z,44.60
2022-08-23T01:37:19.370Z,44.59
2022-08-23T01:39:45.531Z,44.74
2022-08-23T01:42:11.718Z,44.66
2022-08-23T01:44:37.893Z,44.72
2022-08-23T01:47:04.018Z,44.64
2022-08-23T01:49:30.149Z,44.68
2022-08-23T01:51:56.316Z,44.86
2022-08-23T01:54:22.464Z,44.85
2022-08-23T01:56:48.593Z,44.59
2022-08-23T01:59:14.747Z,44.60
2022-08-23T02:01:43.001Z,44.70
2022-08-23T02:04:09.219Z,44.78
2022-08-23T02:06:35.371Z,44.96
2022-08-23T02:09:01.529Z,44.97
2022-08-23T02:11:29.865Z,44.86
2022-08-23T02:13:56.030Z,44.88
2022-08-23T02:16:22.170Z,44.87
2022-08-23T02:18:48.296Z,45.00
2022-08-23T02:21:14.611Z,45.14
2022-08-23T02:23:40.739Z,45.12
2022-08-23T02:26:06.865Z,44.97
2022-08-23T02:28:33.028Z,45.01
2022-08-23T02:30:59.162Z,45.28
2022-08-23T02:33:25.312Z,45.32
2022-08-23T02:35:51.542Z,45.06
2022-08-23T02:38:17.790Z,45.17
2022-08-23T02:40:44.074Z,45.08
2022-08-23T02:43:10.351Z,45.10
2022-08-23T02:45:36.630Z,45.17
2022-08-23T02:48:02.846Z,45.18
2022-08-23T02:50:29.108Z,45.11
2022-08-23T02:52:55.375Z,45.02
2022-08-23T02:55:21.600Z,45.26
2022-08-23T02:57:47.853Z,45.30
2022-08-23T03:00:14.087Z,45.24
2022-08-23T03:02:40.452Z,45.27
2022-08-23T03:05:06.806Z,45.33
2022-08-23T03:07:33.038Z,45.21
2022-08-23T03:10:00.980Z,45.31
2022-08-23T03:12:27.254Z,45.31
2022-08-23T03:14:53.472Z,45.32
2022-08-23T03:17:19.692Z,45.25
2022-08-23T03:19:45.940Z,45.44
2022-08-23T03:22:12.177Z,45.43
2022-08-23T03:24:38.420Z,45.48
2022-08-23T03:27:04.671Z,45.34
2022-08-23T03:29:30.889Z,45.52
2022-08-23T03:31:57.009Z,45.67
2022-08-23T03:34:23.807Z,45.63
2022-08-23T03:36:49.941Z,45.58
2022-08-23T03:39:16.081Z,45.59
2022-08-23T03:41:42.234Z,45.79
2022-08-23T03:44:08.372Z,45.82
2022-08-23T03:46:34.513Z,46.00
2022-08-23T03:49:00.664Z,45.92
2022-08-23T03:51:26.790Z,46.05
2022-08-23T03:53:52.909Z,46.20
2022-08-23T03:56:19.058Z,46.32
2022-08-23T03:58:45.193Z,46.34
2022-08-23T04:01:11.329Z,46.59
2022-08-23T04:03:37.488Z,46.66
2022-08-23T04:06:03.626Z,46.84
2022-08-23T04:08:33.883Z,46.81
2022-08-23T04:11:00.269Z,46.87
2022-08-23T04:13:26.406Z,46.92
2022-08-23T04:15:53.491Z,47.00
2022-08-23T04:18:19.642Z,46.80
2022-08-23T04:20:45.768Z,46.94
2022-08-23T04:23:11.897Z,46.95
2022-08-23T04:25:38.048Z,46.66
2022-08-23T04:28:04.182Z,46.74
2022-08-23T04:30:30.321Z,46.82
2022-08-23T04:32:56.483Z,46.56
2022-08-23T04:35:22.648Z,46.88
2022-08-23T04:37:48.791Z,46.73
2022-08-23T04:40:15.026Z,46.73
2022-08-23T04:42:41.188Z,46.57
2022-08-23T04:45:07.318Z,46.71
2022-08-23T04:47:33.464Z,46.41
2022-08-23T04:49:59.588Z,46.59
2022-08-23T04:52:25.722Z,46.64
2022-08-23T04:54:51.887Z,46.77
2022-08-23T04:57:18.028Z,46.86
2022-08-23T04:59:44.160Z,46.74
2022-08-23T05:02:10.348Z,46.92
2022-08-23T05:04:36.506Z,46.96
2022-08-23T05:07:02.656Z,46.90
2022-08-23T05:09:28.807Z,47.13
2022-08-23T05:11:54.956Z,47.17
2022-08-23T05:14:21.089Z,47.17
2022-08-23T05:16:47.282Z,47.14
2022-08-23T05:19:13.426Z,46.99
2022-08-23T05:21:39.573Z,47.27
2022-08-23T05:24:05.730Z,47.16
2022-08-23T05:26:32.957Z,47.25
2022-08-23T05:28:59.090Z,47.13
2022-08-23T05:31:25.233Z,47.19
2022-08-23T05:33:51.375Z,47.36
2022-08-23T05:36:17.510Z,47.34
2022-08-23T05:38:43.666Z,47.44
2022-08-23T05:41:09.792Z,47.64
2022-08-23T05:43:35.915Z,47.49
2022-08-23T05:46:03.627Z,47.84
2022-08-23T05:48:29.880Z,47.60
2022-08-23T05:50:56.048Z,47.75
2022-08-23T05:53:22.202Z,47.76
2022-08-23T05:55:48.331Z,47.67
2022-08-23T05:58:14.462Z,47.62
2022-08-23T06:00:41.161Z,47.64
2022-08-23T06:03:07.394Z,47.50
2022-08-23T06:05:33.544Z,47.55
2022-08-23T06:07:59.872Z,47.43
2022-08-23T06:10:26.125Z,47.52
2022-08-23T06:12:52.275Z,47.57
2022-08-23T06:15:18.425Z,47.49
2022-08-23T06:17:44.561Z,47.34
2022-08-23T06:20:10.747Z,47.40
2022-08-23T06:22:37.218Z,47.38
2022-08-23T06:25:04.866Z,47.17
2022-08-23T06:27:32.386Z,47.38
2022-08-23T06:29:58.529Z,47.34
2022-08-23T06:32:24.698Z,47.27
2022-08-23T06:34:50.836Z,47.24
2022-08-23T06:37:36.961Z,47.09
2022-08-23T06:40:03.177Z,47.08
2022-08-23T06:42:44.565Z,47.04
2022-08-23T06:45:10.716Z,46.95
2022-08-23T06:47:36.833Z,46.81
2022-08-23T06:50:02.968Z,46.95
2022-08-23T06:52:30.087Z,46.69
2022-08-23T06:54:57.620Z,46.54
2022-08-23T06:57:24.050Z,46.30
2022-08-23T06:59:50.198Z,46.59
2022-08-23T07:02:16.438Z,46.47
2022-08-23T07:04:42.674Z,46.41
2022-08-23T07:07:11.695Z,46.17
2022-08-23T07:09:38.403Z,46.27
2022-08-23T07:12:04.536Z,46.13
2022-08-23T07:14:30.754Z,46.05
2022-08-23T07:16:56.902Z,45.96
2022-08-23T07:19:23.288Z,45.87
2022-08-23T07:21:55.292Z,45.89
2022-08-23T07:24:21.421Z,45.67
2022-08-23T07:26:47.657Z,45.36
2022-08-23T07:29:13.834Z,45.31
2022-08-23T07:31:39.990Z,45.24
2022-08-23T07:34:06.126Z,45.33
2022-08-23T07:36:32.296Z,45.08
2022-08-23T07:38:58.437Z,44.88
2022-08-23T07:41:24.709Z,45.00
2022-08-23T07:43:50.909Z,44.95
2022-08-23T07:46:17.127Z,44.58
2022-08-23T07:48:54.637Z,44.63
2022-08-23T07:51:21.067Z,44.50
2022-08-23T07:53:47.230Z,44.51
2022-08-23T07:56:13.403Z,44.63
2022-08-23T07:58:39.549Z,44.53
2022-08-23T08:01:05.744Z,44.57
2022-08-23T08:03:31.877Z,44.40
2022-08-23T08:05:58.065Z,44.44
2022-08-23T08:08:24.252Z,44.22
2022-08-23T08:10:50.402Z,44.28
2022-08-23T08:13:16.559Z,44.23
2022-08-23T08:15:42.816Z,44.24
2022-08-23T08:18:09.030Z,44.07
2022-08-23T08:20:35.191Z,43.98
2022-08-23T08:23:01.322Z,43.95
2022-08-23T08:25:27.462Z,43.78
2022-08-23T08:27:53.912Z,43.53
2022-08-23T08:30:20.207Z,43.53
2022-08-23T08:32:47.507Z,43.40
2022-08-23T08:35:13.750Z,43.26
2022-08-23T08:37:39.969Z,43.09
2022-08-23T08:40:06.138Z,43.00
2022-08-23T08:42:32.339Z,42.93
2022-08-23T08:44:58.471Z,42.77
2022-08-23T08:47:24.613Z,42.61
2022-08-23T08:49:50.792Z,42.41
2022-08-23T08:52:16.930Z,41.88
2022-08-23T08:54:47.519Z,41.76
2022-08-23T08:57:14.475Z,41.72
2022-08-23T08:59:40.625Z,41.93
2022-08-23T09:02:06.842Z,41.92
2022-08-23T09:04:50.065Z,41.71
2022-08-23T09:07:16.216Z,41.53
2022-08-23T09:09:42.347Z,41.31
2022-08-23T09:12:08.598Z,40.71
2022-08-23T09:14:34.716Z,40.66
2022-08-23T09:17:00.853Z,40.65
2022-08-23T09:19:27.005Z,40.60
2022-08-23T09:21:53.332Z,40.11
2022-08-23T09:24:19.586Z,39.72
2022-08-23T09:26:45.735Z,39.53
2022-08-23T09:29:11.864Z,39.29
2022-08-23T09:31:38.076Z,39.26
2022-08-23T09:34:04.835Z,39.31
2022-08-23T09:36:31.057Z,39.05
2022-08-23T09:38:57.192Z,38.77
2022-08-23T09:41:23.350Z,38.71
2022-08-23T09:43:49.487Z,38.49
2022-08-23T09:46:17.264Z,38.11
2022-08-23T09:48:43.444Z,37.88
2022-08-23T09:51:09.579Z,37.63
2022-08-23T09:53:41.019Z,37.75
2022-08-23T09:56:07.735Z,37.49
2022-08-23T09:58:33.876Z,37.30
2022-08-23T10:01:00.017Z,37.23
2022-08-23T10:03:26.686Z,36.93
2022-08-23T10:05:52.837Z,37.05
2022-08-23T10:08:18.985Z,36.72
2022-08-23T10:10:45.796Z,36.54
2022-08-23T10:13:16.277Z,36.67
2022-08-23T10:15:42.858Z,36.15
2022-08-23T10:18:09.033Z,35.40
2022-08-23T10:20:35.175Z,35.81
2022-08-23T10:23:01.309Z,35.49
2022-08-23T10:25:27.472Z,35.71
2022-08-23T10:27:53.601Z,35.80
2022-08-23T10:30:19.734Z,35.51
2022-08-23T10:32:45.891Z,34.75
2022-08-23T10:35:12.025Z,34.30
2022-08-23T10:37:38.158Z,33.79
2022-08-23T10:40:04.630Z,33.74
2022-08-23T10:42:30.942Z,33.48
2022-08-23T10:44:57.073Z,33.60
2022-08-23T10:47:23.220Z,33.37
2022-08-23T10:49:49.354Z,33.34
2022-08-23T10:52:15.490Z,33.16
2022-08-23T10:54:41.729Z,33.16
2022-08-23T10:57:07.859Z,33.03
2022-08-23T10:59:34.008Z,32.89
2022-08-23T11:02:00.247Z,32.74
2022-08-23T11:04:26.496Z,32.74
2022-08-23T11:06:52.649Z,32.65
2022-08-23T11:09:18.797Z,31.97
2022-08-23T11:11:44.950Z,31.81
2022-08-23T11:14:11.081Z,31.53
2022-08-23T11:16:37.242Z,31.35
2022-08-23T11:19:03.377Z,31.48
2022-08-23T11:21:29.629Z,31.69
2022-08-23T11:23:55.815Z,30.98
2022-08-23T11:26:21.989Z,30.85
2022-08-23T11:28:48.109Z,30.57
2022-08-23T11:31:14.258Z,30.20
2022-08-23T11:33:40.419Z,30.20
2022-08-23T11:36:06.553Z,30.39
2022-08-23T11:38:32.743Z,30.10
2022-08-23T11:40:58.877Z,29.82
2022-08-23T11:43:25.020Z,29.91
2022-08-23T11:45:51.232Z,29.94
2022-08-23T11:48:17.397Z,29.72
2022-08-23T11:50:43.547Z,29.52
2022-08-23T11:53:09.688Z,29.48
2022-08-23T11:55:35.843Z,29.28
2022-08-23T11:58:02.267Z,29.64
2022-08-23T12:00:29.334Z,29.29
2022-08-23T12:02:55.922Z,29.21
2022-08-23T12:05:22.096Z,29.37
2022-08-23T12:07:48.235Z,29.09
2022-08-23T12:10:14.372Z,29.30
2022-08-23T12:12:43.997Z,29.32
2022-08-23T12:15:13.236Z,29.16
2022-08-23T12:17:40.380Z,28.92
2022-08-23T12:20:06.708Z,28.64
2022-08-23T12:22:42.750Z,28.71
2022-08-23T12:25:10.670Z,28.53
2022-08-23T12:27:40.596Z,28.55
2022-08-23T12:30:06.752Z,28.63
2022-08-23T12:32:32.880Z,28.33
2022-08-23T12:34:59.009Z,27.86
2022-08-23T12:37:25.157Z,27.99
2022-08-23T12:39:51.391Z,27.45
2022-08-23T12:42:17.578Z,27.38
2022-08-23T12:44:43.788Z,27.00
2022-08-23T12:47:09.925Z,26.74
2022-08-23T12:49:36.058Z,27.19
2022-08-23T12:52:02.224Z,27.06
2022-08-23T12:54:28.357Z,27.26
2022-08-23T12:56:54.493Z,27.09
2022-08-23T12:59:20.655Z,27.21
2022-08-23T13:01:46.828Z,27.53
2022-08-23T13:04:13.035Z,27.60
2022-08-23T13:06:39.185Z,27.44
2022-08-23T13:09:08.466Z,27.47
2022-08-23T13:11:34.609Z,27.52
2022-08-23T13:14:00.764Z,27.65
2022-08-23T13:16:27.585Z,27.47
2022-08-23T13:18:53.916Z,27.62
2022-08-23T13:21:20.056Z,27.30
2022-08-23T13:23:47.888Z,27.03
2022-08-23T13:26:14.232Z,27.18
2022-08-23T13:28:40.442Z,27.01
2022-08-23T13:31:06.644Z,26.95
2022-08-23T13:33:32.871Z,26.80
2022-08-23T13:35:59.062Z,26.89
2022-08-23T13:38:25.410Z,27.10
2022-08-23T13:40:51.564Z,27.05
2022-08-23T13:43:17.714Z,26.96
2022-08-23T13:45:43.896Z,26.83
2022-08-23T13:48:10.065Z,26.73
2022-08-23T13:50:36.227Z,26.88
2022-08-23T13:53:14.370Z,27.03
2022-08-23T13:55:41.216Z,27.30
2022-08-23T13:58:07.354Z,27.22
2022-08-23T14:00:33.504Z,26.99
2022-08-23T14:02:59.798Z,27.09
2022-08-23T14:05:26.170Z,27.07
2022-08-23T14:07:52.332Z,27.35
2022-08-23T14:10:18.571Z,26.79
2022-08-23T14:12:44.718Z,26.57
2022-08-23T14:15:10.856Z,26.52
2022-08-23T14:17:37.092Z,26.24
2022-08-23T14:22:49.403Z,26.22
2022-08-23T14:25:15.539Z,26.09
2022-08-23T14:27:41.676Z,26.05
2022-08-23T14:30:07.835Z,25.95
2022-08-23T14:32:33.961Z,25.66
2022-08-23T14:35:00.102Z,25.42
2022-08-23T14:40:12.480Z,25.08
2022-08-23T14:42:38.676Z,25.25
2022-08-23T14:45:04.824Z,25.33
2022-08-23T14:47:30.961Z,24.82
2022-08-23T14:49:57.214Z,24.75
2022-08-23T14:52:23.352Z,25.12
2022-08-23T14:54:49.647Z,25.18
2022-08-23T14:57:15.898Z,24.91
2022-08-23T14:59:42.042Z,24.91
2022-08-23T15:02:08.156Z,24.88
2022-08-23T15:04:35.055Z,25.10
2022-08-23T15:07:17.299Z,24.89
2022-08-23T15:09:44.188Z,25.09
2022-08-23T15:12:57.336Z,25.32
2022-08-23T15:14:57.290Z,25.56
2022-08-23T15:17:27.374Z,25.43
2022-08-23T15:19:56.742Z,25.54
2022-08-23T15:22:22.994Z,25.63
2022-08-23T15:24:49.133Z,25.61
2022-08-23T15:27:15.294Z,25.50
2022-08-23T15:29:41.482Z,25.63
2022-08-23T15:32:08.752Z,25.85
2022-08-23T15:34:37.128Z,25.93
2022-08-23T15:37:06.263Z,25.97
2022-08-23T15:39:32.400Z,25.88
2022-08-23T15:41:58.544Z,25.91
2022-08-23T15:44:24.685Z,26.08
2022-08-23T15:46:50.852Z,25.87
2022-08-23T15:49:17.034Z,26.17
2022-08-23T15:51:44.878Z,26.34
2022-08-23T15:54:11.016Z,26.54
2022-08-23T15:56:37.145Z,26.29
2022-08-23T15:59:03.371Z,26.61
2022-08-23T16:01:29.569Z,26.65
2022-08-23T16:03:55.765Z,26.68
2022-08-23T16:06:21.960Z,26.75
2022-08-23T16:08:48.103Z,26.52
2022-08-23T16:11:14.251Z,26.79
2022-08-23T16:13:40.452Z,26.89
2022-08-23T16:16:06.621Z,26.80
2022-08-23T16:18:32.754Z,26.84
2022-08-23T16:20:58.933Z,27.03
2022-08-23T16:23:25.077Z,27.27
2022-08-23T16:25:51.214Z,27.10
2022-08-23T16:28:17.394Z,27.33
2022-08-23T16:30:43.585Z,26.38
2022-08-23T16:33:09.756Z,25.63
2022-08-23T16:35:35.904Z,24.91
2022-08-23T16:38:02.038Z,24.17
2022-08-23T16:40:28.241Z,23.12
2022-08-23T16:42:54.409Z,22.93
2022-08-23T16:45:25.747Z,22.92
2022-08-23T16:47:52.540Z,23.31
2022-08-23T16:50:18.685Z,22.82
2022-08-23T16:52:44.834Z,22.76
2022-08-23T16:55:11.003Z,22.69
2022-08-23T16:57:37.161Z,22.61
2022-08-23T17:00:03.335Z,21.89
2022-08-23T17:02:29.679Z,22.00
2022-08-23T17:04:55.892Z,21.60
2022-08-23T17:07:22.015Z,22.21
2022-08-23T17:09:48.168Z,22.15
2022-08-23T17:12:14.341Z,22.49
2022-08-23T17:14:40.481Z,22.37
2022-08-23T17:17:06.630Z,22.36
2022-08-23T17:19:32.793Z,22.20
2022-08-23T17:21:58.922Z,22.18
2022-08-23T17:24:25.099Z,22.28
2022-08-23T17:26:51.309Z,22.33
2022-08-23T17:29:17.450Z,22.69
2022-08-23T17:31:46.577Z,23.01
2022-08-23T17:34:12.838Z,23.26
2022-08-23T17:36:38.979Z,23.12
2022-08-23T17:39:05.110Z,23.47
2022-08-23T17:41:35.228Z,23.50
2022-08-23T17:44:01.647Z,23.87
2022-08-23T17:46:27.832Z,24.22
2022-08-23T17:48:53.991Z,24.34
2022-08-23T17:51:20.122Z,24.35
2022-08-23T17:53:46.254Z,24.42
2022-08-23T17:56:12.872Z,24.81
2022-08-23T17:58:39.008Z,25.09
2022-08-23T18:01:05.555Z,25.81
2022-08-23T18:03:31.740Z,25.87
2022-08-23T18:05:57.877Z,26.24
2022-08-23T18:08:24.040Z,26.30
2022-08-23T18:10:50.181Z,26.38
2022-08-23T18:13:16.324Z,26.85
2022-08-23T18:15:42.457Z,27.00
2022-08-23T18:18:08.905Z,27.47
2022-08-23T18:20:35.047Z,27.61
2022-08-23T18:23:01.452Z,28.03
2022-08-23T18:25:27.871Z,28.28
2022-08-23T18:27:54.041Z,28.45
2022-08-23T18:30:20.181Z,28.61
2022-08-23T18:32:46.339Z,28.75
2022-08-23T18:35:12.470Z,29.23
2022-08-23T18:37:38.594Z,29.51
2022-08-23T18:40:09.204Z,29.43
2022-08-23T18:42:36.124Z,29.76
2022-08-23T18:45:02.260Z,30.23
2022-08-23T18:47:28.454Z,30.38
2022-08-23T18:49:54.580Z,30.63
2022-08-23T18:52:20.742Z,31.20
2022-08-23T18:54:46.915Z,31.32
2022-08-23T18:57:15.719Z,31.75
2022-08-23T18:59:42.404Z,31.87
2022-08-23T19:02:08.941Z,32.02
2022-08-23T19:04:35.168Z,32.16
2022-08-23T19:07:01.298Z,32.20
2022-08-23T19:09:27.438Z,32.27
2022-08-23T19:11:53.568Z,32.53
2022-08-23T19:14:19.707Z,32.97
2022-08-23T19:16:48.582Z,33.05
2022-08-23T19:19:15.056Z,33.18
2022-08-23T19:21:41.196Z,33.54
2022-08-23T19:24:07.341Z,33.92
2022-08-23T19:26:33.507Z,33.95
2022-08-23T19:28:59.649Z,34.01
2022-08-23T19:31:28.153Z,34.25
2022-08-23T19:33:56.329Z,34.41
2022-08-23T19:36:44.681Z,34.38
2022-08-23T19:39:08.597Z,34.65
2022-08-23T19:41:34.716Z,34.77
2022-08-23T19:44:00.850Z,35.29
2022-08-23T19:46:27.019Z,35.19
2022-08-23T19:48:53.159Z,35.23
2022-08-23T19:51:19.282Z,35.46
2022-08-23T19:53:45.449Z,35.42
2022-08-23T19:56:11.602Z,35.75
2022-08-23T19:58:37.737Z,36.02
2022-08-23T20:01:03.939Z,36.18
2022-08-23T20:03:30.090Z,36.21
2022-08-23T20:05:56.222Z,36.40
2022-08-23T20:08:22.375Z,36.73
2022-08-23T20:10:48.509Z,37.04
2022-08-23T20:13:14.624Z,37.18
2022-08-23T20:15:40.784Z,37.36
2022-08-23T20:18:06.923Z,37.68
2022-08-23T20:20:33.050Z,37.84
2022-08-23T20:22:59.734Z,37.81
2022-08-23T20:25:25.870Z,38.09
2022-08-23T20:27:52.006Z,38.06
2022-08-23T20:30:18.217Z,38.29
2022-08-23T20:32:44.344Z,38.36
2022-08-23T20:35:10.473Z,38.52
2022-08-23T20:37:36.651Z,38.70
2022-08-23T20:40:02.849Z,38.86
2022-08-23T20:42:29.023Z,39.09
2022-08-23T20:44:55.231Z,39.54
2022-08-23T20:47:21.438Z,39.59
2022-08-23T20:49:47.610Z,39.80
2022-08-23T20:52:13.765Z,40.07
2022-08-23T20:54:39.894Z,40.21
2022-08-23T20:57:06.034Z,40.34
2022-08-23T20:59:32.217Z,40.51
2022-08-23T21:01:58.391Z,41.00
2022-08-23T21:04:30.161Z,41.13
2022-08-23T21:06:56.729Z,41.53
2022-08-23T21:09:23.520Z,41.73
2022-08-23T21:11:53.857Z,41.76
2022-08-23T21:14:20.009Z,41.74
2022-08-23T21:16:46.133Z,41.75
2022-08-23T21:19:12.279Z,41.97
2022-08-23T21:21:38.433Z,42.05
2022-08-23T21:24:04.558Z,42.29
2022-08-23T21:26:30.695Z,42.48
2022-08-23T21:28:56.865Z,42.59
2022-08-23T21:31:23.068Z,42.91
2022-08-23T21:33:49.276Z,43.18
2022-08-23T21:36:15.433Z,43.28
2022-08-23T21:38:41.567Z,43.45
2022-08-23T21:41:07.738Z,43.68
2022-08-23T21:43:33.899Z,43.95
2022-08-23T21:46:00.100Z,44.22
2022-08-23T21:48:26.269Z,44.43
2022-08-23T21:50:52.471Z,44.59
2022-08-23T21:53:18.620Z,44.70
2022-08-23T21:55:44.744Z,44.85
2022-08-23T21:58:12.384Z,44.96
2022-08-23T22:00:38.530Z,45.05
2022-08-23T22:03:04.840Z,45.19
2022-08-23T22:05:31.173Z,45.34
2022-08-23T22:07:57.334Z,45.34
2022-08-23T22:10:23.505Z,45.40
2022-08-23T22:12:49.692Z,45.62
2022-08-23T22:15:15.826Z,45.73
2022-08-23T22:17:41.975Z,46.01
2022-08-23T22:20:08.486Z,46.12
2022-08-23T22:22:34.612Z,46.23
2022-08-23T22:25:00.768Z,46.50
2022-08-23T22:27:26.975Z,46.55
2022-08-23T22:29:53.104Z,46.72
2022-08-23T22:32:19.246Z,46.72
2022-08-23T22:34:45.398Z,47.01
2022-08-23T22:37:11.536Z,47.10
2022-08-23T22:39:37.678Z,47.08
2022-08-23T22:42:03.832Z,47.05
2022-08-23T22:44:30.309Z,47.04
2022-08-23T22:46:56.439Z,46.99
2022-08-23T22:49:22.584Z,47.24
2022-08-23T22:51:55.296Z,47.34
2022-08-23T22:54:21.585Z,47.29
2022-08-23T22:56:47.733Z,47.40
2022-08-23T22:59:13.871Z,47.62
2022-08-23T23:01:42.240Z,47.72
2022-08-23T23:04:10.527Z,48.00
2022-08-23T23:06:36.805Z,48.09
2022-08-23T23:09:02.945Z,48.19
2022-08-23T23:11:29.369Z,48.21
2022-08-23T23:13:55.571Z,48.34
2022-08-23T23:16:21.741Z,48.50
2022-08-23T23:18:47.938Z,48.66
2022-08-23T23:21:14.070Z,48.65
2022-08-23T23:23:40.202Z,48.48
2022-08-23T23:26:06.347Z,48.38
2022-08-23T23:28:32.460Z,48.30
2022-08-23T23:30:58.701Z,48.54
2022-08-23T23:33:24.889Z,48.78
2022-08-23T23:35:51.020Z,48.99
2022-08-23T23:38:17.156Z,48.94
2022-08-23T23:40:43.463Z,49.08
2022-08-23T23:43:10.627Z,48.99
2022-08-23T23:45:39.388Z,49.21
2022-08-23T23:48:08.428Z,49.14
2022-08-23T23:50:34.994Z,49.49
2022-08-23T23:53:01.138Z,49.58
2022-08-23T23:55:27.291Z,49.54
2022-08-23T23:57:53.416Z,49.54
